sensor_id;sensor_type;location;lat;lon;timestamp;temperature;humidity
70839;DHT22;58464;52.298;4.852;2022-10-30T00:00:31;16.95;80.63
70839;DHT22;58464;52.298;4.852;2022-10-30T00:02:56;16.92;80.62
70839;DHT22;58464;52.298;4.852;2022-10-30T00:05:22;16.92;80.78
70839;DHT22;58464;52.298;4.852;2022-10-30T00:07:48;16.90;81.17
70839;DHT22;58464;52.298;4.852;2022-10-30T00:10:14;16.82;81.28
70839;DHT22;58464;52.298;4.852;2022-10-30T00:12:40;16.86;81.24
70839;DHT22;58464;52.298;4.852;2022-10-30T00:15:06;16.82;81.09
70839;DHT22;58464;52.298;4.852;2022-10-30T00:17:31;16.76;81.35
70839;DHT22;58464;52.298;4.852;2022-10-30T00:19:57;16.72;81.48
70839;DHT22;58464;52.298;4.852;2022-10-30T00:22:22;16.76;81.42
70839;DHT22;58464;52.298;4.852;2022-10-30T00:24:48;16.73;81.35
70839;DHT22;58464;52.298;4.852;2022-10-30T00:27:14;16.73;81.57
70839;DHT22;58464;52.298;4.852;2022-10-30T00:29:40;16.69;81.59
70839;DHT22;58464;52.298;4.852;2022-10-30T00:32:06;16.62;81.85
70839;DHT22;58464;52.298;4.852;2022-10-30T00:34:31;16.55;82.07
70839;DHT22;58464;52.298;4.852;2022-10-30T00:36:58;16.58;81.97
70839;DHT22;58464;52.298;4.852;2022-10-30T00:39:23;16.55;82.23
70839;DHT22;58464;52.298;4.852;2022-10-30T00:41:49;16.51;82.28
70839;DHT22;58464;52.298;4.852;2022-10-30T00:47:02;16.42;82.59
70839;DHT22;58464;52.298;4.852;2022-10-30T00:49:32;16.41;82.74
70839;DHT22;58464;52.298;4.852;2022-10-30T00:52:01;16.38;82.82
70839;DHT22;58464;52.298;4.852;2022-10-30T00:54:29;16.41;83.03
70839;DHT22;58464;52.298;4.852;2022-10-30T00:56:54;16.28;83.20
70839;DHT22;58464;52.298;4.852;2022-10-30T00:59:26;16.22;83.29
70839;DHT22;58464;52.298;4.852;2022-10-30T01:01:53;16.20;83.44
70839;DHT22;58464;52.298;4.852;2022-10-30T01:04:20;16.21;83.39
70839;DHT22;58464;52.298;4.852;2022-10-30T01:06:49;16.22;83.51
70839;DHT22;58464;52.298;4.852;2022-10-30T01:09:17;16.21;83.66
70839;DHT22;58464;52.298;4.852;2022-10-30T01:11:43;16.16;83.88
70839;DHT22;58464;52.298;4.852;2022-10-30T01:14:10;16.14;83.66
70839;DHT22;58464;52.298;4.852;2022-10-30T01:38:38;15.74;85.12
70839;DHT22;58464;52.298;4.852;2022-10-30T01:41:07;15.74;85.16
70839;DHT22;58464;52.298;4.852;2022-10-30T01:43:34;15.63;85.44
70839;DHT22;58464;52.298;4.852;2022-10-30T01:51:41;15.53;85.53
70839;DHT22;58464;52.298;4.852;2022-10-30T02:00:00;15.42;86.00
70839;DHT22;58464;52.298;4.852;2022-10-30T02:02:26;15.42;85.97
70839;DHT22;58464;52.298;4.852;2022-10-30T02:04:52;15.40;86.14
70839;DHT22;58464;52.298;4.852;2022-10-30T02:07:17;15.40;86.38
70839;DHT22;58464;52.298;4.852;2022-10-30T02:09:43;15.40;86.13
70839;DHT22;58464;52.298;4.852;2022-10-30T02:12:08;15.45;86.45
70839;DHT22;58464;52.298;4.852;2022-10-30T02:14:41;15.45;85.98
70839;DHT22;58464;52.298;4.852;2022-10-30T02:17:08;15.46;86.07
70839;DHT22;58464;52.298;4.852;2022-10-30T02:19:33;15.43;86.15
70839;DHT22;58464;52.298;4.852;2022-10-30T02:21:59;15.48;86.07
70839;DHT22;58464;52.298;4.852;2022-10-30T02:24:25;15.38;86.33
70839;DHT22;58464;52.298;4.852;2022-10-30T02:26:50;15.38;86.48
70839;DHT22;58464;52.298;4.852;2022-10-30T02:29:16;15.46;86.27
70839;DHT22;58464;52.298;4.852;2022-10-30T02:31:45;15.40;86.25
70839;DHT22;58464;52.298;4.852;2022-10-30T02:34:10;15.40;86.23
70839;DHT22;58464;52.298;4.852;2022-10-30T02:36:35;15.49;86.21
70839;DHT22;58464;52.298;4.852;2022-10-30T02:39:02;15.43;86.28
70839;DHT22;58464;52.298;4.852;2022-10-30T02:41:27;15.45;86.24
70839;DHT22;58464;52.298;4.852;2022-10-30T02:43:53;15.36;86.30
70839;DHT22;58464;52.298;4.852;2022-10-30T02:46:19;15.40;86.38
70839;DHT22;58464;52.298;4.852;2022-10-30T02:48:44;15.32;86.36
70839;DHT22;58464;52.298;4.852;2022-10-30T02:51:10;15.35;86.28
70839;DHT22;58464;52.298;4.852;2022-10-30T02:53:36;15.34;86.69
70839;DHT22;58464;52.298;4.852;2022-10-30T02:56:07;15.32;86.56
70839;DHT22;58464;52.298;4.852;2022-10-30T02:58:33;15.31;86.97
70839;DHT22;58464;52.298;4.852;2022-10-30T03:01:10;15.22;87.03
70839;DHT22;58464;52.298;4.852;2022-10-30T03:03:35;15.29;87.11
70839;DHT22;58464;52.298;4.852;2022-10-30T03:06:03;15.29;86.98
70839;DHT22;58464;52.298;4.852;2022-10-30T03:08:29;15.31;87.09
70839;DHT22;58464;52.298;4.852;2022-10-30T03:11:02;15.29;87.06
70839;DHT22;58464;52.298;4.852;2022-10-30T03:13:29;15.35;86.98
70839;DHT22;58464;52.298;4.852;2022-10-30T03:16:04;15.36;86.91
70839;DHT22;58464;52.298;4.852;2022-10-30T03:18:30;15.32;86.85
70839;DHT22;58464;52.298;4.852;2022-10-30T03:21:01;15.38;86.68
70839;DHT22;58464;52.298;4.852;2022-10-30T03:23:27;15.40;86.75
70839;DHT22;58464;52.298;4.852;2022-10-30T03:25:54;15.32;86.80
70839;DHT22;58464;52.298;4.852;2022-10-30T03:28:25;15.31;86.95
70839;DHT22;58464;52.298;4.852;2022-10-30T03:30:56;15.24;87.11
70839;DHT22;58464;52.298;4.852;2022-10-30T03:33:22;15.12;87.34
70839;DHT22;58464;52.298;4.852;2022-10-30T03:35:47;15.08;87.61
70839;DHT22;58464;52.298;4.852;2022-10-30T03:38:12;15.01;87.67
70839;DHT22;58464;52.298;4.852;2022-10-30T03:40:39;14.97;87.88
70839;DHT22;58464;52.298;4.852;2022-10-30T03:43:04;15.07;88.05
70839;DHT22;58464;52.298;4.852;2022-10-30T03:45:31;15.01;87.82
70839;DHT22;58464;52.298;4.852;2022-10-30T03:48:01;15.05;87.84
70839;DHT22;58464;52.298;4.852;2022-10-30T03:50:27;15.05;87.78
70839;DHT22;58464;52.298;4.852;2022-10-30T03:52:53;15.08;87.84
70839;DHT22;58464;52.298;4.852;2022-10-30T03:55:19;14.99;87.89
70839;DHT22;58464;52.298;4.852;2022-10-30T03:57:44;14.97;88.13
70839;DHT22;58464;52.298;4.852;2022-10-30T04:00:10;14.98;88.05
70839;DHT22;58464;52.298;4.852;2022-10-30T04:02:36;14.94;87.81
70839;DHT22;58464;52.298;4.852;2022-10-30T04:05:01;14.95;88.09
70839;DHT22;58464;52.298;4.852;2022-10-30T04:07:27;14.98;87.82
70839;DHT22;58464;52.298;4.852;2022-10-30T04:09:53;14.97;87.85
70839;DHT22;58464;52.298;4.852;2022-10-30T04:12:18;14.90;87.83
70839;DHT22;58464;52.298;4.852;2022-10-30T04:14:44;14.91;88.25
70839;DHT22;58464;52.298;4.852;2022-10-30T04:17:10;14.88;88.06
70839;DHT22;58464;52.298;4.852;2022-10-30T04:19:35;14.88;88.01
70839;DHT22;58464;52.298;4.852;2022-10-30T04:22:00;14.88;88.17
70839;DHT22;58464;52.298;4.852;2022-10-30T04:24:26;14.83;88.00
70839;DHT22;58464;52.298;4.852;2022-10-30T04:26:51;14.83;88.27
70839;DHT22;58464;52.298;4.852;2022-10-30T04:29:16;14.78;88.04
70839;DHT22;58464;52.298;4.852;2022-10-30T04:31:42;14.77;88.27
70839;DHT22;58464;52.298;4.852;2022-10-30T04:34:07;14.83;88.22
70839;DHT22;58464;52.298;4.852;2022-10-30T04:36:33;14.73;88.21
70839;DHT22;58464;52.298;4.852;2022-10-30T04:38:59;14.76;87.99
70839;DHT22;58464;52.298;4.852;2022-10-30T04:41:25;14.76;88.20
70839;DHT22;58464;52.298;4.852;2022-10-30T04:43:51;14.74;88.28
70839;DHT22;58464;52.298;4.852;2022-10-30T04:46:16;14.71;88.18
70839;DHT22;58464;52.298;4.852;2022-10-30T04:48:43;14.71;88.20
70839;DHT22;58464;52.298;4.852;2022-10-30T04:51:08;14.61;88.27
70839;DHT22;58464;52.298;4.852;2022-10-30T04:53:36;14.64;88.50
70839;DHT22;58464;52.298;4.852;2022-10-30T04:56:02;14.61;88.58
70839;DHT22;58464;52.298;4.852;2022-10-30T04:58:28;14.53;88.61
70839;DHT22;58464;52.298;4.852;2022-10-30T05:00:53;14.46;88.94
70839;DHT22;58464;52.298;4.852;2022-10-30T05:03:23;14.40;89.06
70839;DHT22;58464;52.298;4.852;2022-10-30T05:05:57;14.39;89.26
70839;DHT22;58464;52.298;4.852;2022-10-30T05:08:23;14.30;89.12
70839;DHT22;58464;52.298;4.852;2022-10-30T05:10:49;14.29;89.06
70839;DHT22;58464;52.298;4.852;2022-10-30T05:13:14;14.30;89.28
70839;DHT22;58464;52.298;4.852;2022-10-30T05:15:40;14.23;89.41
70839;DHT22;58464;52.298;4.852;2022-10-30T05:18:05;14.29;89.49
70839;DHT22;58464;52.298;4.852;2022-10-30T05:20:30;14.25;89.36
70839;DHT22;58464;52.298;4.852;2022-10-30T05:22:57;14.25;89.40
70839;DHT22;58464;52.298;4.852;2022-10-30T05:25:23;14.18;89.55
70839;DHT22;58464;52.298;4.852;2022-10-30T05:27:49;14.28;89.82
70839;DHT22;58464;52.298;4.852;2022-10-30T05:30:14;14.19;89.20
70839;DHT22;58464;52.298;4.852;2022-10-30T05:32:39;14.28;89.58
70839;DHT22;58464;52.298;4.852;2022-10-30T05:35:05;14.23;89.39
70839;DHT22;58464;52.298;4.852;2022-10-30T05:37:30;14.19;89.49
70839;DHT22;58464;52.298;4.852;2022-10-30T05:39:56;14.16;89.62
70839;DHT22;58464;52.298;4.852;2022-10-30T05:42:21;14.25;89.44
70839;DHT22;58464;52.298;4.852;2022-10-30T05:44:47;14.22;89.39
70839;DHT22;58464;52.298;4.852;2022-10-30T05:47:12;14.20;89.37
70839;DHT22;58464;52.298;4.852;2022-10-30T05:49:37;14.23;89.60
70839;DHT22;58464;52.298;4.852;2022-10-30T05:52:03;14.18;89.54
70839;DHT22;58464;52.298;4.852;2022-10-30T05:54:28;14.06;89.52
70839;DHT22;58464;52.298;4.852;2022-10-30T05:56:55;14.13;89.50
70839;DHT22;58464;52.298;4.852;2022-10-30T05:59:21;14.09;89.78
70839;DHT22;58464;52.298;4.852;2022-10-30T06:01:46;13.99;89.59
70839;DHT22;58464;52.298;4.852;2022-10-30T06:04:12;14.02;89.74
70839;DHT22;58464;52.298;4.852;2022-10-30T06:06:37;13.94;89.64
70839;DHT22;58464;52.298;4.852;2022-10-30T06:09:02;13.95;90.15
70839;DHT22;58464;52.298;4.852;2022-10-30T06:11:28;13.97;89.87
70839;DHT22;58464;52.298;4.852;2022-10-30T06:13:53;13.95;89.89
70839;DHT22;58464;52.298;4.852;2022-10-30T06:16:18;13.94;89.98
70839;DHT22;58464;52.298;4.852;2022-10-30T06:18:44;13.97;90.00
70839;DHT22;58464;52.298;4.852;2022-10-30T06:21:09;13.88;89.92
70839;DHT22;58464;52.298;4.852;2022-10-30T06:23:34;13.94;90.13
70839;DHT22;58464;52.298;4.852;2022-10-30T06:26:00;13.92;90.15
70839;DHT22;58464;52.298;4.852;2022-10-30T06:28:25;13.94;89.76
70839;DHT22;58464;52.298;4.852;2022-10-30T06:30:52;13.97;89.77
70839;DHT22;58464;52.298;4.852;2022-10-30T06:33:18;13.98;89.44
70839;DHT22;58464;52.298;4.852;2022-10-30T06:35:43;14.02;89.36
70839;DHT22;58464;52.298;4.852;2022-10-30T06:38:09;14.04;89.17
70839;DHT22;58464;52.298;4.852;2022-10-30T06:40:36;14.06;89.43
70839;DHT22;58464;52.298;4.852;2022-10-30T06:43:01;14.06;89.14
70839;DHT22;58464;52.298;4.852;2022-10-30T06:45:26;14.02;89.42
70839;DHT22;58464;52.298;4.852;2022-10-30T06:47:52;14.05;89.20
70839;DHT22;58464;52.298;4.852;2022-10-30T06:50:19;14.15;88.92
70839;DHT22;58464;52.298;4.852;2022-10-30T06:52:45;14.18;88.50
70839;DHT22;58464;52.298;4.852;2022-10-30T06:55:10;14.20;88.32
70839;DHT22;58464;52.298;4.852;2022-10-30T06:57:36;14.33;88.42
70839;DHT22;58464;52.298;4.852;2022-10-30T07:00:03;14.36;88.18
70839;DHT22;58464;52.298;4.852;2022-10-30T07:02:29;14.40;88.10
70839;DHT22;58464;52.298;4.852;2022-10-30T07:04:54;14.51;87.67
70839;DHT22;58464;52.298;4.852;2022-10-30T07:07:20;14.46;87.59
70839;DHT22;58464;52.298;4.852;2022-10-30T07:09:45;14.39;87.48
70839;DHT22;58464;52.298;4.852;2022-10-30T07:12:10;14.34;87.81
70839;DHT22;58464;52.298;4.852;2022-10-30T07:14:36;14.33;87.72
70839;DHT22;58464;52.298;4.852;2022-10-30T07:17:01;14.33;87.68
70839;DHT22;58464;52.298;4.852;2022-10-30T07:19:27;14.44;87.63
70839;DHT22;58464;52.298;4.852;2022-10-30T07:21:52;14.50;87.30
70839;DHT22;58464;52.298;4.852;2022-10-30T07:24:18;14.47;87.21
70839;DHT22;58464;52.298;4.852;2022-10-30T07:26:43;14.61;87.28
70839;DHT22;58464;52.298;4.852;2022-10-30T07:29:09;14.63;86.77
70839;DHT22;58464;52.298;4.852;2022-10-30T07:31:34;14.71;86.50
70839;DHT22;58464;52.298;4.852;2022-10-30T07:33:59;14.80;86.41
70839;DHT22;58464;52.298;4.852;2022-10-30T07:36:25;14.80;86.34
70839;DHT22;58464;52.298;4.852;2022-10-30T07:38:50;14.84;86.25
70839;DHT22;58464;52.298;4.852;2022-10-30T07:41:17;14.95;85.86
70839;DHT22;58464;52.298;4.852;2022-10-30T07:43:42;14.98;85.78
70839;DHT22;58464;52.298;4.852;2022-10-30T07:46:07;15.08;85.38
70839;DHT22;58464;52.298;4.852;2022-10-30T07:48:33;15.12;85.37
70839;DHT22;58464;52.298;4.852;2022-10-30T07:50:58;15.14;85.39
70839;DHT22;58464;52.298;4.852;2022-10-30T07:53:24;15.08;85.37
70839;DHT22;58464;52.298;4.852;2022-10-30T07:55:49;15.05;85.49
70839;DHT22;58464;52.298;4.852;2022-10-30T07:58:14;15.05;85.48
70839;DHT22;58464;52.298;4.852;2022-10-30T08:00:40;15.08;85.54
70839;DHT22;58464;52.298;4.852;2022-10-30T08:03:05;15.15;85.62
70839;DHT22;58464;52.298;4.852;2022-10-30T08:05:30;15.27;85.33
70839;DHT22;58464;52.298;4.852;2022-10-30T08:07:56;15.39;84.90
70839;DHT22;58464;52.298;4.852;2022-10-30T08:10:22;15.55;84.58
70839;DHT22;58464;52.298;4.852;2022-10-30T08:12:47;15.65;84.11
70839;DHT22;58464;52.298;4.852;2022-10-30T08:15:13;15.70;83.82
70839;DHT22;58464;52.298;4.852;2022-10-30T08:17:47;15.85;83.13
70839;DHT22;58464;52.298;4.852;2022-10-30T08:20:16;15.98;82.89
70839;DHT22;58464;52.298;4.852;2022-10-30T08:22:49;16.14;82.53
70839;DHT22;58464;52.298;4.852;2022-10-30T08:25:17;16.13;82.14
70839;DHT22;58464;52.298;4.852;2022-10-30T08:28:02;16.07;82.01
70839;DHT22;58464;52.298;4.852;2022-10-30T08:30:30;16.16;82.20
70839;DHT22;58464;52.298;4.852;2022-10-30T08:33:03;16.22;82.10
70839;DHT22;58464;52.298;4.852;2022-10-30T08:35:29;16.41;81.44
70839;DHT22;58464;52.298;4.852;2022-10-30T08:37:56;16.44;81.24
70839;DHT22;58464;52.298;4.852;2022-10-30T08:40:26;16.58;80.74
70839;DHT22;58464;52.298;4.852;2022-10-30T08:42:56;16.71;80.41
70839;DHT22;58464;52.298;4.852;2022-10-30T08:45:23;16.87;79.93
70839;DHT22;58464;52.298;4.852;2022-10-30T08:48:01;17.02;79.58
70839;DHT22;58464;52.298;4.852;2022-10-30T08:50:30;17.06;79.34
70839;DHT22;58464;52.298;4.852;2022-10-30T08:52:59;17.17;79.01
70839;DHT22;58464;52.298;4.852;2022-10-30T08:55:25;17.20;78.78
70839;DHT22;58464;52.298;4.852;2022-10-30T08:57:51;17.24;78.98
70839;DHT22;58464;52.298;4.852;2022-10-30T09:00:16;17.30;78.68
70839;DHT22;58464;52.298;4.852;2022-10-30T09:02:42;17.50;78.16
70839;DHT22;58464;52.298;4.852;2022-10-30T09:05:09;17.43;78.04
70839;DHT22;58464;52.298;4.852;2022-10-30T09:07:34;17.47;78.01
70839;DHT22;58464;52.298;4.852;2022-10-30T09:10:00;17.48;78.00
70839;DHT22;58464;52.298;4.852;2022-10-30T09:12:26;17.44;78.33
70839;DHT22;58464;52.298;4.852;2022-10-30T09:14:52;17.70;77.77
70839;DHT22;58464;52.298;4.852;2022-10-30T09:17:20;17.74;77.38
70839;DHT22;58464;52.298;4.852;2022-10-30T09:19:45;17.63;77.70
70839;DHT22;58464;52.298;4.852;2022-10-30T09:22:11;17.67;77.70
70839;DHT22;58464;52.298;4.852;2022-10-30T09:24:36;17.68;77.79
70839;DHT22;58464;52.298;4.852;2022-10-30T09:27:03;17.79;77.52
70839;DHT22;58464;52.298;4.852;2022-10-30T09:29:28;17.78;77.38
70839;DHT22;58464;52.298;4.852;2022-10-30T09:31:56;17.81;77.37
70839;DHT22;58464;52.298;4.852;2022-10-30T09:34:21;17.86;76.95
70839;DHT22;58464;52.298;4.852;2022-10-30T09:36:46;17.94;76.71
70839;DHT22;58464;52.298;4.852;2022-10-30T09:39:15;18.24;76.00
70839;DHT22;58464;52.298;4.852;2022-10-30T09:55:39;18.83;74.69
70839;DHT22;58464;52.298;4.852;2022-10-30T10:01:33;19.04;73.94
70839;DHT22;58464;52.298;4.852;2022-10-30T10:03:57;19.12;73.63
70839;DHT22;58464;52.298;4.852;2022-10-30T10:06:24;19.41;72.99
70839;DHT22;58464;52.298;4.852;2022-10-30T10:09:05;19.52;72.25
70839;DHT22;58464;52.298;4.852;2022-10-30T10:11:39;19.73;71.72
70839;DHT22;58464;52.298;4.852;2022-10-30T10:16:52;20.06;70.61
70839;DHT22;58464;52.298;4.852;2022-10-30T10:19:21;20.18;69.97
70839;DHT22;58464;52.298;4.852;2022-10-30T10:21:58;20.35;69.76
70839;DHT22;58464;52.298;4.852;2022-10-30T10:24:26;20.37;69.50
70839;DHT22;58464;52.298;4.852;2022-10-30T10:29:40;20.67;69.15
70839;DHT22;58464;52.298;4.852;2022-10-30T10:34:56;20.98;68.22
70839;DHT22;58464;52.298;4.852;2022-10-30T10:40:27;21.29;66.79
70839;DHT22;58464;52.298;4.852;2022-10-30T10:51:43;21.06;67.35
70839;DHT22;58464;52.298;4.852;2022-10-30T10:54:15;21.39;66.73
70839;DHT22;58464;52.298;4.852;2022-10-30T10:56:44;21.39;66.62
70839;DHT22;58464;52.298;4.852;2022-10-30T10:59:19;21.43;66.79
70839;DHT22;58464;52.298;4.852;2022-10-30T11:02:28;21.40;66.71
70839;DHT22;58464;52.298;4.852;2022-10-30T11:05:23;21.65;66.38
70839;DHT22;58464;52.298;4.852;2022-10-30T11:07:48;22.00;65.68
70839;DHT22;58464;52.298;4.852;2022-10-30T11:10:17;22.29;64.54
70839;DHT22;58464;52.298;4.852;2022-10-30T11:12:43;22.46;63.33
70839;DHT22;58464;52.298;4.852;2022-10-30T11:15:20;22.81;62.99
70839;DHT22;58464;52.298;4.852;2022-10-30T11:18:00;22.80;63.04
70839;DHT22;58464;52.298;4.852;2022-10-30T11:23:42;22.23;64.23
70839;DHT22;58464;52.298;4.852;2022-10-30T11:28:58;22.25;64.37
70839;DHT22;58464;52.298;4.852;2022-10-30T11:31:26;22.19;64.72
70839;DHT22;58464;52.298;4.852;2022-10-30T11:33:54;22.15;64.81
70839;DHT22;58464;52.298;4.852;2022-10-30T11:36:25;22.25;64.34
70839;DHT22;58464;52.298;4.852;2022-10-30T11:38:51;22.28;64.19
70839;DHT22;58464;52.298;4.852;2022-10-30T11:41:20;22.43;63.81
70839;DHT22;58464;52.298;4.852;2022-10-30T11:43:47;22.36;64.29
70839;DHT22;58464;52.298;4.852;2022-10-30T11:46:20;22.26;64.61
70839;DHT22;58464;52.298;4.852;2022-10-30T11:48:47;22.13;65.00
70839;DHT22;58464;52.298;4.852;2022-10-30T11:51:31;22.25;64.75
70839;DHT22;58464;52.298;4.852;2022-10-30T11:53:58;22.11;65.12
70839;DHT22;58464;52.298;4.852;2022-10-30T11:56:24;22.11;64.53
70839;DHT22;58464;52.298;4.852;2022-10-30T11:58:52;22.23;64.89
70839;DHT22;58464;52.298;4.852;2022-10-30T12:01:25;21.91;65.56
70839;DHT22;58464;52.298;4.852;2022-10-30T12:03:52;21.95;65.79
70839;DHT22;58464;52.298;4.852;2022-10-30T12:09:21;22.06;64.95
70839;DHT22;58464;52.298;4.852;2022-10-30T12:11:47;22.06;65.27
70839;DHT22;58464;52.298;4.852;2022-10-30T12:14:21;22.06;65.04
70839;DHT22;58464;52.298;4.852;2022-10-30T12:16:50;22.21;65.56
70839;DHT22;58464;52.298;4.852;2022-10-30T12:19:20;22.21;65.13
70839;DHT22;58464;52.298;4.852;2022-10-30T12:21:50;22.16;65.55
70839;DHT22;58464;52.298;4.852;2022-10-30T12:24:29;22.25;65.20
70839;DHT22;58464;52.298;4.852;2022-10-30T12:27:01;22.32;65.04
70839;DHT22;58464;52.298;4.852;2022-10-30T12:29:47;22.29;64.84
70839;DHT22;58464;52.298;4.852;2022-10-30T12:32:18;22.18;65.11
70839;DHT22;58464;52.298;4.852;2022-10-30T12:34:48;22.09;65.28
70839;DHT22;58464;52.298;4.852;2022-10-30T12:37:25;22.19;65.55
70839;DHT22;58464;52.298;4.852;2022-10-30T12:42:20;22.18;65.96
70839;DHT22;58464;52.298;4.852;2022-10-30T12:47:57;22.19;65.56
70839;DHT22;58464;52.298;4.852;2022-10-30T12:50:54;22.11;65.05
70839;DHT22;58464;52.298;4.852;2022-10-30T12:53:28;21.95;66.24
70839;DHT22;58464;52.298;4.852;2022-10-30T12:56:06;21.70;67.12
70839;DHT22;58464;52.298;4.852;2022-10-30T13:01:37;21.44;67.49
70839;DHT22;58464;52.298;4.852;2022-10-30T13:06:51;21.39;67.99
70839;DHT22;58464;52.298;4.852;2022-10-30T13:12:37;21.29;68.07
70839;DHT22;58464;52.298;4.852;2022-10-30T13:15:16;21.22;68.77
70839;DHT22;58464;52.298;4.852;2022-10-30T13:17:43;21.26;68.83
70839;DHT22;58464;52.298;4.852;2022-10-30T13:20:13;21.27;69.06
70839;DHT22;58464;52.298;4.852;2022-10-30T13:22:50;21.37;68.83
70839;DHT22;58464;52.298;4.852;2022-10-30T13:28:12;21.50;67.72
70839;DHT22;58464;52.298;4.852;2022-10-30T13:30:45;21.55;68.06
70839;DHT22;58464;52.298;4.852;2022-10-30T13:33:42;21.55;68.14
70839;DHT22;58464;52.298;4.852;2022-10-30T13:37:08;21.57;68.02
70839;DHT22;58464;52.298;4.852;2022-10-30T13:44:38;21.36;68.28
70839;DHT22;58464;52.298;4.852;2022-10-30T13:47:11;21.39;68.11
70839;DHT22;58464;52.298;4.852;2022-10-30T13:50:10;21.47;68.02
70839;DHT22;58464;52.298;4.852;2022-10-30T13:52:42;21.60;67.61
70839;DHT22;58464;52.298;4.852;2022-10-30T13:55:20;21.65;67.31
70839;DHT22;58464;52.298;4.852;2022-10-30T14:04:01;22.26;67.78
70839;DHT22;58464;52.298;4.852;2022-10-30T14:09:32;22.32;67.68
70839;DHT22;58464;52.298;4.852;2022-10-30T14:13:04;22.22;67.86
70839;DHT22;58464;52.298;4.852;2022-10-30T14:20:45;21.81;69.13
70839;DHT22;58464;52.298;4.852;2022-10-30T14:23:31;21.71;69.38
70839;DHT22;58464;52.298;4.852;2022-10-30T14:28:27;21.13;71.16
70839;DHT22;58464;52.298;4.852;2022-10-30T14:31:17;20.95;71.90
70839;DHT22;58464;52.298;4.852;2022-10-30T14:36:22;20.71;72.09
70839;DHT22;58464;52.298;4.852;2022-10-30T14:39:26;20.45;71.65
70839;DHT22;58464;52.298;4.852;2022-10-30T14:42:09;20.20;71.64
70839;DHT22;58464;52.298;4.852;2022-10-30T14:58:34;19.56;74.35
70839;DHT22;58464;52.298;4.852;2022-10-30T15:03:37;19.28;75.27
70839;DHT22;58464;52.298;4.852;2022-10-30T15:11:45;19.00;75.92
70839;DHT22;58464;52.298;4.852;2022-10-30T15:14:46;18.75;76.85
70839;DHT22;58464;52.298;4.852;2022-10-30T15:19:46;18.60;77.51
70839;DHT22;58464;52.298;4.852;2022-10-30T15:22:16;18.47;78.24
70839;DHT22;58464;52.298;4.852;2022-10-30T15:24:43;18.39;78.62
70839;DHT22;58464;52.298;4.852;2022-10-30T15:27:20;18.39;78.00
70839;DHT22;58464;52.298;4.852;2022-10-30T15:29:55;18.25;78.31
70839;DHT22;58464;52.298;4.852;2022-10-30T15:32:24;18.30;78.15
70839;DHT22;58464;52.298;4.852;2022-10-30T15:35:00;17.99;79.03
70839;DHT22;58464;52.298;4.852;2022-10-30T15:37:28;17.99;79.76
70839;DHT22;58464;52.298;4.852;2022-10-30T15:42:34;17.89;80.44
70839;DHT22;58464;52.298;4.852;2022-10-30T15:45:01;17.77;80.76
70839;DHT22;58464;52.298;4.852;2022-10-30T15:47:27;17.85;80.65
70839;DHT22;58464;52.298;4.852;2022-10-30T15:49:54;17.74;81.45
70839;DHT22;58464;52.298;4.852;2022-10-30T15:52:23;17.54;82.04
70839;DHT22;58464;52.298;4.852;2022-10-30T15:54:57;17.48;82.61
70839;DHT22;58464;52.298;4.852;2022-10-30T15:57:29;17.47;82.95
70839;DHT22;58464;52.298;4.852;2022-10-30T15:59:58;17.57;82.85
70839;DHT22;58464;52.298;4.852;2022-10-30T16:02:25;17.34;82.42
70839;DHT22;58464;52.298;4.852;2022-10-30T16:04:51;17.27;83.05
70839;DHT22;58464;52.298;4.852;2022-10-30T16:07:23;17.22;83.13
70839;DHT22;58464;52.298;4.852;2022-10-30T16:09:56;17.20;83.15
70839;DHT22;58464;52.298;4.852;2022-10-30T16:12:27;17.20;82.89
70839;DHT22;58464;52.298;4.852;2022-10-30T16:14:54;17.16;83.12
70839;DHT22;58464;52.298;4.852;2022-10-30T16:17:20;17.12;83.42
70839;DHT22;58464;52.298;4.852;2022-10-30T16:19:49;17.19;83.26
70839;DHT22;58464;52.298;4.852;2022-10-30T16:22:25;17.15;83.34
70839;DHT22;58464;52.298;4.852;2022-10-30T16:24:52;17.16;83.47
70839;DHT22;58464;52.298;4.852;2022-10-30T16:27:20;17.03;83.93
70839;DHT22;58464;52.298;4.852;2022-10-30T16:29:51;16.96;84.42
70839;DHT22;58464;52.298;4.852;2022-10-30T16:32:20;17.03;83.97
70839;DHT22;58464;52.298;4.852;2022-10-30T16:34:49;17.00;83.88
70839;DHT22;58464;52.298;4.852;2022-10-30T16:39:58;16.97;83.84
70839;DHT22;58464;52.298;4.852;2022-10-30T16:42:27;17.00;84.03
70839;DHT22;58464;52.298;4.852;2022-10-30T16:45:39;17.00;83.73
70839;DHT22;58464;52.298;4.852;2022-10-30T16:48:11;16.99;83.73
70839;DHT22;58464;52.298;4.852;2022-10-30T16:50:39;16.95;83.76
70839;DHT22;58464;52.298;4.852;2022-10-30T16:53:07;16.93;83.77
70839;DHT22;58464;52.298;4.852;2022-10-30T16:55:36;16.93;83.87
70839;DHT22;58464;52.298;4.852;2022-10-30T16:58:02;16.92;83.85
70839;DHT22;58464;52.298;4.852;2022-10-30T17:00:28;17.02;84.01
70839;DHT22;58464;52.298;4.852;2022-10-30T17:02:56;16.99;83.45
70839;DHT22;58464;52.298;4.852;2022-10-30T17:05:29;16.96;83.38
70839;DHT22;58464;52.298;4.852;2022-10-30T17:08:00;16.97;83.24
70839;DHT22;58464;52.298;4.852;2022-10-30T17:10:36;17.00;83.29
70839;DHT22;58464;52.298;4.852;2022-10-30T17:16:38;16.92;83.40
70839;DHT22;58464;52.298;4.852;2022-10-30T17:22:08;16.95;83.51
70839;DHT22;58464;52.298;4.852;2022-10-30T17:24:37;16.90;83.68
70839;DHT22;58464;52.298;4.852;2022-10-30T17:27:05;16.92;83.74
70839;DHT22;58464;52.298;4.852;2022-10-30T17:32:04;16.87;83.65
70839;DHT22;58464;52.298;4.852;2022-10-30T17:34:35;16.80;83.58
70839;DHT22;58464;52.298;4.852;2022-10-30T17:37:01;16.79;83.53
70839;DHT22;58464;52.298;4.852;2022-10-30T17:39:26;16.87;83.50
70839;DHT22;58464;52.298;4.852;2022-10-30T17:41:55;16.82;83.46
70839;DHT22;58464;52.298;4.852;2022-10-30T17:44:23;16.80;83.52
70839;DHT22;58464;52.298;4.852;2022-10-30T17:46:49;16.75;83.77
70839;DHT22;58464;52.298;4.852;2022-10-30T17:49:29;16.72;83.94
70839;DHT22;58464;52.298;4.852;2022-10-30T17:51:54;16.78;84.27
70839;DHT22;58464;52.298;4.852;2022-10-30T17:54:20;16.76;84.09
70839;DHT22;58464;52.298;4.852;2022-10-30T17:56:45;16.72;84.23
70839;DHT22;58464;52.298;4.852;2022-10-30T17:59:11;16.66;84.56
70839;DHT22;58464;52.298;4.852;2022-10-30T18:01:36;16.58;84.66
70839;DHT22;58464;52.298;4.852;2022-10-30T18:04:07;16.57;84.76
70839;DHT22;58464;52.298;4.852;2022-10-30T18:06:35;16.57;84.86
70839;DHT22;58464;52.298;4.852;2022-10-30T18:09:01;16.54;84.86
70839;DHT22;58464;52.298;4.852;2022-10-30T18:11:26;16.49;84.09
70839;DHT22;58464;52.298;4.852;2022-10-30T18:13:54;16.48;84.06
70839;DHT22;58464;52.298;4.852;2022-10-30T18:16:21;16.41;83.88
70839;DHT22;58464;52.298;4.852;2022-10-30T18:18:46;16.51;83.40
70839;DHT22;58464;52.298;4.852;2022-10-30T18:21:13;16.42;83.29
70839;DHT22;58464;52.298;4.852;2022-10-30T18:23:39;16.37;83.40